sensor_id;sensor_type;location;lat;lon;timestamp;temperature;humidity
1948;DHT22;974;52.400;9.818;2023-03-03T00:01:42;1.10;99.90
1948;DHT22;974;52.400;9.818;2023-03-03T00:04:08;1.10;99.90
1948;DHT22;974;52.400;9.818;2023-03-03T00:06:33;1.00;99.90
1948;DHT22;974;52.400;9.818;2023-03-03T00:08:59;1.10;99.90
1948;DHT22;974;52.400;9.818;2023-03-03T00:11:24;1.10;99.90
1948;DHT22;974;52.400;9.818;2023-03-03T00:13:54;1.20;99.90
1948;DHT22;974;52.400;9.818;2023-03-03T00:16:31;1.20;99.90
1948;DHT22;974;52.400;9.818;2023-03-03T00:18:59;1.20;99.90
1948;DHT22;974;52.400;9.818;2023-03-03T00:21:31;1.10;99.90
1948;DHT22;974;52.400;9.818;2023-03-03T00:26:44;1.00;99.90
1948;DHT22;974;52.400;9.818;2023-03-03T00:29:27;1.00;99.90
1948;DHT22;974;52.400;9.818;2023-03-03T00:31:54;1.00;99.90
1948;DHT22;974;52.400;9.818;2023-03-03T00:34:27;1.00;99.90
1948;DHT22;974;52.400;9.818;2023-03-03T00:36:54;0.90;99.90
1948;DHT22;974;52.400;9.818;2023-03-03T00:39:37;0.90;99.90
1948;DHT22;974;52.400;9.818;2023-03-03T00:42:15;0.90;99.90
1948;DHT22;974;52.400;9.818;2023-03-03T00:44:44;0.80;99.90
1948;DHT22;974;52.400;9.818;2023-03-03T00:47:35;0.90;99.90
1948;DHT22;974;52.400;9.818;2023-03-03T00:52:37;0.90;99.90
1948;DHT22;974;52.400;9.818;2023-03-03T00:55:04;0.90;99.90
1948;DHT22;974;52.400;9.818;2023-03-03T00:57:30;1.00;99.90
1948;DHT22;974;52.400;9.818;2023-03-03T00:59:55;0.90;99.90
1948;DHT22;974;52.400;9.818;2023-03-03T01:02:21;0.90;99.90
1948;DHT22;974;52.400;9.818;2023-03-03T01:04:50;0.90;99.90
1948;DHT22;974;52.400;9.818;2023-03-03T01:07:16;0.80;99.90
1948;DHT22;974;52.400;9.818;2023-03-03T01:09:42;0.80;99.90
1948;DHT22;974;52.400;9.818;2023-03-03T01:12:09;0.90;99.90
1948;DHT22;974;52.400;9.818;2023-03-03T01:14:34;0.90;99.90
1948;DHT22;974;52.400;9.818;2023-03-03T01:17:00;0.90;99.90
1948;DHT22;974;52.400;9.818;2023-03-03T01:19:26;0.90;99.90
1948;DHT22;974;52.400;9.818;2023-03-03T01:21:52;0.90;99.90
1948;DHT22;974;52.400;9.818;2023-03-03T01:24:17;1.00;99.90
1948;DHT22;974;52.400;9.818;2023-03-03T01:26:42;1.00;99.90
1948;DHT22;974;52.400;9.818;2023-03-03T01:29:08;0.90;99.90
1948;DHT22;974;52.400;9.818;2023-03-03T01:31:34;0.90;99.90
1948;DHT22;974;52.400;9.818;2023-03-03T01:33:59;0.90;99.90
1948;DHT22;974;52.400;9.818;2023-03-03T01:36:26;0.90;99.90
1948;DHT22;974;52.400;9.818;2023-03-03T01:38:53;0.90;99.90
1948;DHT22;974;52.400;9.818;2023-03-03T01:41:19;0.90;99.90
1948;DHT22;974;52.400;9.818;2023-03-03T01:43:47;0.90;99.90
1948;DHT22;974;52.400;9.818;2023-03-03T01:46:29;0.90;99.90
1948;DHT22;974;52.400;9.818;2023-03-03T01:49:00;0.80;99.90
1948;DHT22;974;52.400;9.818;2023-03-03T01:51:51;0.80;99.90
1948;DHT22;974;52.400;9.818;2023-03-03T01:54:22;0.90;99.90
1948;DHT22;974;52.400;9.818;2023-03-03T01:56:49;0.90;99.90
1948;DHT22;974;52.400;9.818;2023-03-03T01:59:25;0.90;99.90
1948;DHT22;974;52.400;9.818;2023-03-03T02:01:53;1.00;99.90
1948;DHT22;974;52.400;9.818;2023-03-03T02:04:19;0.90;99.90
1948;DHT22;974;52.400;9.818;2023-03-03T02:07:07;0.90;99.90
1948;DHT22;974;52.400;9.818;2023-03-03T02:10:10;0.90;99.90
1948;DHT22;974;52.400;9.818;2023-03-03T02:12:43;0.90;99.90
1948;DHT22;974;52.400;9.818;2023-03-03T02:15:24;0.90;99.90
1948;DHT22;974;52.400;9.818;2023-03-03T02:17:53;0.90;99.90
1948;DHT22;974;52.400;9.818;2023-03-03T02:23:03;0.90;99.90
1948;DHT22;974;52.400;9.818;2023-03-03T02:25:39;0.90;99.90
1948;DHT22;974;52.400;9.818;2023-03-03T02:28:07;0.90;99.90
1948;DHT22;974;52.400;9.818;2023-03-03T02:30:37;0.90;99.90
1948;DHT22;974;52.400;9.818;2023-03-03T02:33:02;1.00;99.90
1948;DHT22;974;52.400;9.818;2023-03-03T02:35:30;1.00;99.90
1948;DHT22;974;52.400;9.818;2023-03-03T02:38:09;1.00;99.90
1948;DHT22;974;52.400;9.818;2023-03-03T02:40:39;1.20;99.90
1948;DHT22;974;52.400;9.818;2023-03-03T02:43:07;1.10;99.90
1948;DHT22;974;52.400;9.818;2023-03-03T02:45:33;1.00;99.90
1948;DHT22;974;52.400;9.818;2023-03-03T02:47:59;1.10;99.90
1948;DHT22;974;52.400;9.818;2023-03-03T02:50:24;1.00;99.90
1948;DHT22;974;52.400;9.818;2023-03-03T02:52:50;1.00;99.90
1948;DHT22;974;52.400;9.818;2023-03-03T02:55:15;1.20;99.90
1948;DHT22;974;52.400;9.818;2023-03-03T02:57:40;1.10;99.90
1948;DHT22;974;52.400;9.818;2023-03-03T03:00:06;1.10;99.90
1948;DHT22;974;52.400;9.818;2023-03-03T03:02:32;1.10;99.90
1948;DHT22;974;52.400;9.818;2023-03-03T03:04:58;1.10;99.90
1948;DHT22;974;52.400;9.818;2023-03-03T03:07:23;1.10;99.90
1948;DHT22;974;52.400;9.818;2023-03-03T03:09:49;1.20;99.90
1948;DHT22;974;52.400;9.818;2023-03-03T03:12:14;1.20;99.90
1948;DHT22;974;52.400;9.818;2023-03-03T03:14:40;1.10;99.90
1948;DHT22;974;52.400;9.818;2023-03-03T03:17:06;1.10;99.90
1948;DHT22;974;52.400;9.818;2023-03-03T03:19:31;1.10;99.90
1948;DHT22;974;52.400;9.818;2023-03-03T03:21:56;1.20;99.90
1948;DHT22;974;52.400;9.818;2023-03-03T03:24:22;1.20;99.90
1948;DHT22;974;52.400;9.818;2023-03-03T03:26:47;1.20;99.90
1948;DHT22;974;52.400;9.818;2023-03-03T03:29:13;1.20;99.90
1948;DHT22;974;52.400;9.818;2023-03-03T03:31:38;1.20;99.90
1948;DHT22;974;52.400;9.818;2023-03-03T03:34:04;1.20;99.90
1948;DHT22;974;52.400;9.818;2023-03-03T03:36:29;1.20;99.90
1948;DHT22;974;52.400;9.818;2023-03-03T03:38:55;1.20;99.90
1948;DHT22;974;52.400;9.818;2023-03-03T03:41:20;1.20;99.90
1948;DHT22;974;52.400;9.818;2023-03-03T03:43:46;1.20;99.90
1948;DHT22;974;52.400;9.818;2023-03-03T03:46:11;1.30;99.90
1948;DHT22;974;52.400;9.818;2023-03-03T03:48:37;1.30;99.90
1948;DHT22;974;52.400;9.818;2023-03-03T03:51:03;1.30;99.90
1948;DHT22;974;52.400;9.818;2023-03-03T03:53:28;1.30;99.90
1948;DHT22;974;52.400;9.818;2023-03-03T03:55:54;1.30;99.90
1948;DHT22;974;52.400;9.818;2023-03-03T03:58:19;1.30;99.90
1948;DHT22;974;52.400;9.818;2023-03-03T04:00:45;1.20;99.90
1948;DHT22;974;52.400;9.818;2023-03-03T04:03:11;1.20;99.90
1948;DHT22;974;52.400;9.818;2023-03-03T04:05:38;1.20;99.90
1948;DHT22;974;52.400;9.818;2023-03-03T04:08:04;1.30;99.90
1948;DHT22;974;52.400;9.818;2023-03-03T04:10:30;1.30;99.90
1948;DHT22;974;52.400;9.818;2023-03-03T04:12:55;1.30;99.90
1948;DHT22;974;52.400;9.818;2023-03-03T04:15:20;1.30;99.90
1948;DHT22;974;52.400;9.818;2023-03-03T04:17:46;1.30;99.90
1948;DHT22;974;52.400;9.818;2023-03-03T04:20:13;1.30;99.90
1948;DHT22;974;52.400;9.818;2023-03-03T04:22:40;1.40;99.90
1948;DHT22;974;52.400;9.818;2023-03-03T04:25:06;1.40;99.90
1948;DHT22;974;52.400;9.818;2023-03-03T04:27:33;1.40;99.90
1948;DHT22;974;52.400;9.818;2023-03-03T04:29:59;1.40;99.90
1948;DHT22;974;52.400;9.818;2023-03-03T04:32:25;1.40;99.90
1948;DHT22;974;52.400;9.818;2023-03-03T04:34:50;1.30;99.90
1948;DHT22;974;52.400;9.818;2023-03-03T04:37:16;1.40;99.90
1948;DHT22;974;52.400;9.818;2023-03-03T04:39:41;1.30;99.90
1948;DHT22;974;52.400;9.818;2023-03-03T04:42:07;1.40;99.90
1948;DHT22;974;52.400;9.818;2023-03-03T04:44:32;1.40;99.90
1948;DHT22;974;52.400;9.818;2023-03-03T04:46:58;1.40;99.90
1948;DHT22;974;52.400;9.818;2023-03-03T04:49:23;1.40;99.90
1948;DHT22;974;52.400;9.818;2023-03-03T04:51:49;1.40;99.90
1948;DHT22;974;52.400;9.818;2023-03-03T04:54:15;1.40;99.90
1948;DHT22;974;52.400;9.818;2023-03-03T04:56:40;1.40;99.90
1948;DHT22;974;52.400;9.818;2023-03-03T04:59:06;1.40;99.90
1948;DHT22;974;52.400;9.818;2023-03-03T05:01:31;1.50;99.90
1948;DHT22;974;52.400;9.818;2023-03-03T05:03:56;1.50;99.90
1948;DHT22;974;52.400;9.818;2023-03-03T05:06:22;1.50;99.90
1948;DHT22;974;52.400;9.818;2023-03-03T05:08:48;1.40;99.90
1948;DHT22;974;52.400;9.818;2023-03-03T05:11:14;1.40;99.90
1948;DHT22;974;52.400;9.818;2023-03-03T05:13:40;1.40;99.90
1948;DHT22;974;52.400;9.818;2023-03-03T05:16:05;1.40;99.90
1948;DHT22;974;52.400;9.818;2023-03-03T05:18:31;1.40;99.90
1948;DHT22;974;52.400;9.818;2023-03-03T05:20:57;1.40;99.90
1948;DHT22;974;52.400;9.818;2023-03-03T05:23:22;1.40;99.90
1948;DHT22;974;52.400;9.818;2023-03-03T05:25:49;1.40;99.90
1948;DHT22;974;52.400;9.818;2023-03-03T05:28:15;1.30;99.90
1948;DHT22;974;52.400;9.818;2023-03-03T05:30:40;1.30;99.90
1948;DHT22;974;52.400;9.818;2023-03-03T05:33:06;1.30;99.90
1948;DHT22;974;52.400;9.818;2023-03-03T05:35:32;1.30;99.90
1948;DHT22;974;52.400;9.818;2023-03-03T05:37:58;1.30;99.90
1948;DHT22;974;52.400;9.818;2023-03-03T05:40:24;1.40;99.90
1948;DHT22;974;52.400;9.818;2023-03-03T05:42:50;1.20;99.90
1948;DHT22;974;52.400;9.818;2023-03-03T05:45:16;1.30;99.90
1948;DHT22;974;52.400;9.818;2023-03-03T05:47:44;1.30;99.90
1948;DHT22;974;52.400;9.818;2023-03-03T05:50:10;1.30;99.90
1948;DHT22;974;52.400;9.818;2023-03-03T05:52:36;1.30;99.90
1948;DHT22;974;52.400;9.818;2023-03-03T05:55:02;1.30;99.90
1948;DHT22;974;52.400;9.818;2023-03-03T05:57:27;1.30;99.90
1948;DHT22;974;52.400;9.818;2023-03-03T05:59:53;1.30;99.90
1948;DHT22;974;52.400;9.818;2023-03-03T06:02:18;1.30;99.90
1948;DHT22;974;52.400;9.818;2023-03-03T06:04:44;1.30;99.90
1948;DHT22;974;52.400;9.818;2023-03-03T06:07:09;1.30;99.90
1948;DHT22;974;52.400;9.818;2023-03-03T06:09:35;1.30;99.90
1948;DHT22;974;52.400;9.818;2023-03-03T06:12:01;1.30;99.90
1948;DHT22;974;52.400;9.818;2023-03-03T06:14:26;1.30;99.90
1948;DHT22;974;52.400;9.818;2023-03-03T06:16:52;1.40;99.90
1948;DHT22;974;52.400;9.818;2023-03-03T06:19:17;1.40;99.90
1948;DHT22;974;52.400;9.818;2023-03-03T06:21:43;1.40;99.90
1948;DHT22;974;52.400;9.818;2023-03-03T06:24:08;1.40;99.90
1948;DHT22;974;52.400;9.818;2023-03-03T06:26:34;1.40;99.90
1948;DHT22;974;52.400;9.818;2023-03-03T06:29:00;1.30;99.90
1948;DHT22;974;52.400;9.818;2023-03-03T06:31:26;1.40;99.90
1948;DHT22;974;52.400;9.818;2023-03-03T06:33:52;1.40;99.90
1948;DHT22;974;52.400;9.818;2023-03-03T06:36:18;1.40;99.90
1948;DHT22;974;52.400;9.818;2023-03-03T06:38:44;1.40;99.90
1948;DHT22;974;52.400;9.818;2023-03-03T06:41:10;1.50;99.90
1948;DHT22;974;52.400;9.818;2023-03-03T06:43:36;1.40;99.90
1948;DHT22;974;52.400;9.818;2023-03-03T06:46:03;1.40;99.90
1948;DHT22;974;52.400;9.818;2023-03-03T06:48:29;1.40;99.90
1948;DHT22;974;52.400;9.818;2023-03-03T06:50:55;1.40;99.90
1948;DHT22;974;52.400;9.818;2023-03-03T06:53:21;1.50;99.90
1948;DHT22;974;52.400;9.818;2023-03-03T06:55:47;1.50;99.90
1948;DHT22;974;52.400;9.818;2023-03-03T06:58:16;1.50;99.90
1948;DHT22;974;52.400;9.818;2023-03-03T07:00:44;1.30;99.90
1948;DHT22;974;52.400;9.818;2023-03-03T07:03:15;1.40;99.90
1948;DHT22;974;52.400;9.818;2023-03-03T07:05:42;1.20;99.90
1948;DHT22;974;52.400;9.818;2023-03-03T07:08:16;1.40;99.90
1948;DHT22;974;52.400;9.818;2023-03-03T07:10:42;1.50;99.90
1948;DHT22;974;52.400;9.818;2023-03-03T07:13:23;1.50;99.90
1948;DHT22;974;52.400;9.818;2023-03-03T07:15:51;1.40;99.90
1948;DHT22;974;52.400;9.818;2023-03-03T07:21:18;1.50;99.90
1948;DHT22;974;52.400;9.818;2023-03-03T07:23:46;1.50;99.90
1948;DHT22;974;52.400;9.818;2023-03-03T07:26:14;1.40;99.90
1948;DHT22;974;52.400;9.818;2023-03-03T07:28:42;1.50;99.90
1948;DHT22;974;52.400;9.818;2023-03-03T07:31:38;1.60;99.90
1948;DHT22;974;52.400;9.818;2023-03-03T07:34:22;1.70;99.90
1948;DHT22;974;52.400;9.818;2023-03-03T07:36:50;1.70;99.90
1948;DHT22;974;52.400;9.818;2023-03-03T07:39:33;1.70;99.90
1948;DHT22;974;52.400;9.818;2023-03-03T07:42:27;1.60;99.90
1948;DHT22;974;52.400;9.818;2023-03-03T07:44:59;1.70;99.90
1948;DHT22;974;52.400;9.818;2023-03-03T07:47:35;1.70;99.90
1948;DHT22;974;52.400;9.818;2023-03-03T07:50:13;1.70;99.90
1948;DHT22;974;52.400;9.818;2023-03-03T07:52:43;1.70;99.90
1948;DHT22;974;52.400;9.818;2023-03-03T07:55:34;1.80;99.90
1948;DHT22;974;52.400;9.818;2023-03-03T08:03:14;1.70;99.90
1948;DHT22;974;52.400;9.818;2023-03-03T08:05:42;1.80;99.90
1948;DHT22;974;52.400;9.818;2023-03-03T08:10:53;2.00;99.90
1948;DHT22;974;52.400;9.818;2023-03-03T08:15:48;2.10;99.90
1948;DHT22;974;52.400;9.818;2023-03-03T08:18:22;1.90;99.90
1948;DHT22;974;52.400;9.818;2023-03-03T08:20:54;2.10;99.90
1948;DHT22;974;52.400;9.818;2023-03-03T08:23:20;2.20;99.90
1948;DHT22;974;52.400;9.818;2023-03-03T08:25:48;1.90;99.90
1948;DHT22;974;52.400;9.818;2023-03-03T08:28:14;1.90;99.90
1948;DHT22;974;52.400;9.818;2023-03-03T08:30:40;2.00;99.90
1948;DHT22;974;52.400;9.818;2023-03-03T08:33:06;2.10;99.90
1948;DHT22;974;52.400;9.818;2023-03-03T08:35:31;2.20;99.90
1948;DHT22;974;52.400;9.818;2023-03-03T08:37:57;2.20;99.90
1948;DHT22;974;52.400;9.818;2023-03-03T08:40:23;2.20;99.90
1948;DHT22;974;52.400;9.818;2023-03-03T08:42:48;2.30;99.90
1948;DHT22;974;52.400;9.818;2023-03-03T08:45:14;2.30;99.90
1948;DHT22;974;52.400;9.818;2023-03-03T08:47:39;2.30;99.90
1948;DHT22;974;52.400;9.818;2023-03-03T08:50:06;2.40;99.90
1948;DHT22;974;52.400;9.818;2023-03-03T08:52:31;2.40;99.90
1948;DHT22;974;52.400;9.818;2023-03-03T08:54:58;2.50;99.90
1948;DHT22;974;52.400;9.818;2023-03-03T08:57:24;2.50;99.90
1948;DHT22;974;52.400;9.818;2023-03-03T08:59:49;2.60;99.90
1948;DHT22;974;52.400;9.818;2023-03-03T09:02:15;2.50;99.90
1948;DHT22;974;52.400;9.818;2023-03-03T09:04:41;2.60;99.90
1948;DHT22;974;52.400;9.818;2023-03-03T09:07:07;2.60;99.90
1948;DHT22;974;52.400;9.818;2023-03-03T09:09:32;2.40;99.90
1948;DHT22;974;52.400;9.818;2023-03-03T09:12:02;2.50;99.90
1948;DHT22;974;52.400;9.818;2023-03-03T09:14:31;2.50;99.90
1948;DHT22;974;52.400;9.818;2023-03-03T09:16:56;2.50;99.90
1948;DHT22;974;52.400;9.818;2023-03-03T09:19:30;2.50;99.90
1948;DHT22;974;52.400;9.818;2023-03-03T09:22:18;2.50;99.90
1948;DHT22;974;52.400;9.818;2023-03-03T09:24:45;2.50;99.90
1948;DHT22;974;52.400;9.818;2023-03-03T09:27:26;2.70;99.90
1948;DHT22;974;52.400;9.818;2023-03-03T09:29:52;2.80;99.90
1948;DHT22;974;52.400;9.818;2023-03-03T09:32:30;2.70;99.90
1948;DHT22;974;52.400;9.818;2023-03-03T09:34:58;2.60;99.90
1948;DHT22;974;52.400;9.818;2023-03-03T09:37:35;2.80;99.90
1948;DHT22;974;52.400;9.818;2023-03-03T09:40:38;2.60;99.90
1948;DHT22;974;52.400;9.818;2023-03-03T09:43:10;2.50;99.90
1948;DHT22;974;52.400;9.818;2023-03-03T09:50:56;2.80;99.90
1948;DHT22;974;52.400;9.818;2023-03-03T09:53:47;2.80;99.90
1948;DHT22;974;52.400;9.818;2023-03-03T09:56:26;2.70;99.90
1948;DHT22;974;52.400;9.818;2023-03-03T10:05:01;2.90;99.90
1948;DHT22;974;52.400;9.818;2023-03-03T10:10:37;2.80;99.90
1948;DHT22;974;52.400;9.818;2023-03-03T10:13:25;2.90;99.90
1948;DHT22;974;52.400;9.818;2023-03-03T10:16:30;3.10;99.90
1948;DHT22;974;52.400;9.818;2023-03-03T10:19:08;3.20;99.90
1948;DHT22;974;52.400;9.818;2023-03-03T10:24:26;3.00;99.90
1948;DHT22;974;52.400;9.818;2023-03-03T10:30:16;3.30;99.90
1948;DHT22;974;52.400;9.818;2023-03-03T10:32:51;3.40;99.90
1948;DHT22;974;52.400;9.818;2023-03-03T10:35:56;3.40;99.90
1948;DHT22;974;52.400;9.818;2023-03-03T10:51:13;3.60;99.90
1948;DHT22;974;52.400;9.818;2023-03-03T10:59:33;3.70;99.90
1948;DHT22;974;52.400;9.818;2023-03-03T11:02:21;3.40;99.90
1948;DHT22;974;52.400;9.818;2023-03-03T11:07:50;3.50;99.90
1948;DHT22;974;52.400;9.818;2023-03-03T11:10:25;3.50;99.90
1948;DHT22;974;52.400;9.818;2023-03-03T11:15:55;3.80;99.90
1948;DHT22;974;52.400;9.818;2023-03-03T11:18:52;3.80;99.90
1948;DHT22;974;52.400;9.818;2023-03-03T11:21:30;3.80;99.90
1948;DHT22;974;52.400;9.818;2023-03-03T11:24:01;3.80;99.90
1948;DHT22;974;52.400;9.818;2023-03-03T11:26:41;3.80;99.90
1948;DHT22;974;52.400;9.818;2023-03-03T11:29:20;3.80;99.90
1948;DHT22;974;52.400;9.818;2023-03-03T11:31:55;3.70;99.90
1948;DHT22;974;52.400;9.818;2023-03-03T11:35:03;3.80;99.90
1948;DHT22;974;52.400;9.818;2023-03-03T11:37:42;3.80;99.90
1948;DHT22;974;52.400;9.818;2023-03-03T11:40:19;4.00;99.90
1948;DHT22;974;52.400;9.818;2023-03-03T11:43:20;4.10;99.90
1948;DHT22;974;52.400;9.818;2023-03-03T11:45:58;4.40;99.90
1948;DHT22;974;52.400;9.818;2023-03-03T11:51:06;4.30;99.90
1948;DHT22;974;52.400;9.818;2023-03-03T11:54:00;4.50;99.90
1948;DHT22;974;52.400;9.818;2023-03-03T11:56:44;4.50;99.90
1948;DHT22;974;52.400;9.818;2023-03-03T12:04:58;4.80;99.90
1948;DHT22;974;52.400;9.818;2023-03-03T12:07:53;4.50;99.90
1948;DHT22;974;52.400;9.818;2023-03-03T12:10:31;4.80;99.90
1948;DHT22;974;52.400;9.818;2023-03-03T12:13:04;4.80;99.90
1948;DHT22;974;52.400;9.818;2023-03-03T12:15:52;5.20;99.90
1948;DHT22;974;52.400;9.818;2023-03-03T12:18:23;5.60;99.90
1948;DHT22;974;52.400;9.818;2023-03-03T12:29:41;6.10;99.90
1948;DHT22;974;52.400;9.818;2023-03-03T12:35:38;9.60;99.90
1948;DHT22;974;52.400;9.818;2023-03-03T12:40:34;9.30;99.90
1948;DHT22;974;52.400;9.818;2023-03-03T12:46:04;7.80;99.90
1948;DHT22;974;52.400;9.818;2023-03-03T12:48:44;7.70;99.90
1948;DHT22;974;52.400;9.818;2023-03-03T12:54:23;7.60;99.90
1948;DHT22;974;52.400;9.818;2023-03-03T12:56:57;7.10;99.90
1948;DHT22;974;52.400;9.818;2023-03-03T12:59:57;6.70;99.90
1948;DHT22;974;52.400;9.818;2023-03-03T13:02:40;6.70;99.90
1948;DHT22;974;52.400;9.818;2023-03-03T13:08:20;7.40;99.90
1948;DHT22;974;52.400;9.818;2023-03-03T13:11:18;6.90;99.90
1948;DHT22;974;52.400;9.818;2023-03-03T13:14:09;6.80;99.90
1948;DHT22;974;52.400;9.818;2023-03-03T13:16:48;6.30;99.90
1948;DHT22;974;52.400;9.818;2023-03-03T13:19:22;5.80;99.90
1948;DHT22;974;52.400;9.818;2023-03-03T13:22:07;6.00;99.90
1948;DHT22;974;52.400;9.818;2023-03-03T13:24:59;5.90;99.90
1948;DHT22;974;52.400;9.818;2023-03-03T13:27:31;6.10;99.90
1948;DHT22;974;52.400;9.818;2023-03-03T13:30:07;6.00;99.90
1948;DHT22;974;52.400;9.818;2023-03-03T13:32:48;5.80;99.90
1948;DHT22;974;52.400;9.818;2023-03-03T13:35:35;5.70;99.90
1948;DHT22;974;52.400;9.818;2023-03-03T13:38:01;5.60;99.90
1948;DHT22;974;52.400;9.818;2023-03-03T13:43:25;5.80;99.90
1948;DHT22;974;52.400;9.818;2023-03-03T13:53:53;5.50;99.90
1948;DHT22;974;52.400;9.818;2023-03-03T13:56:42;5.20;99.90
1948;DHT22;974;52.400;9.818;2023-03-03T13:59:21;5.30;99.90
1948;DHT22;974;52.400;9.818;2023-03-03T14:04:52;5.40;99.90
1948;DHT22;974;52.400;9.818;2023-03-03T14:07:42;5.60;99.90
1948;DHT22;974;52.400;9.818;2023-03-03T14:10:22;5.10;99.90
1948;DHT22;974;52.400;9.818;2023-03-03T14:13:11;5.30;99.90
1948;DHT22;974;52.400;9.818;2023-03-03T14:15:49;5.10;99.90
1948;DHT22;974;52.400;9.818;2023-03-03T14:22:03;5.40;99.90
1948;DHT22;974;52.400;9.818;2023-03-03T14:24:19;5.10;99.90
1948;DHT22;974;52.400;9.818;2023-03-03T14:26:50;5.00;99.90
1948;DHT22;974;52.400;9.818;2023-03-03T14:29:30;4.90;99.90
1948;DHT22;974;52.400;9.818;2023-03-03T14:32:01;5.00;99.90
1948;DHT22;974;52.400;9.818;2023-03-03T14:34:38;4.90;99.90
1948;DHT22;974;52.400;9.818;2023-03-03T14:39:50;5.00;99.90
1948;DHT22;974;52.400;9.818;2023-03-03T14:42:39;5.00;99.90
1948;DHT22;974;52.400;9.818;2023-03-03T14:47:56;5.00;99.90
1948;DHT22;974;52.400;9.818;2023-03-03T14:50:37;4.90;99.90
1948;DHT22;974;52.400;9.818;2023-03-03T14:55:41;4.50;99.90
1948;DHT22;974;52.400;9.818;2023-03-03T15:04:01;4.50;99.90
1948;DHT22;974;52.400;9.818;2023-03-03T15:06:34;4.40;99.90
1948;DHT22;974;52.400;9.818;2023-03-03T15:11:50;4.50;99.90
1948;DHT22;974;52.400;9.818;2023-03-03T15:14:18;4.70;99.90
1948;DHT22;974;52.400;9.818;2023-03-03T15:16:44;4.50;99.90
1948;DHT22;974;52.400;9.818;2023-03-03T15:19:20;4.40;99.90
1948;DHT22;974;52.400;9.818;2023-03-03T15:22:00;4.20;99.90
1948;DHT22;974;52.400;9.818;2023-03-03T15:24:41;4.10;99.90
1948;DHT22;974;52.400;9.818;2023-03-03T15:27:35;4.30;99.90
1948;DHT22;974;52.400;9.818;2023-03-03T15:30:30;4.60;99.90
1948;DHT22;974;52.400;9.818;2023-03-03T15:33:14;4.90;99.90
1948;DHT22;974;52.400;9.818;2023-03-03T15:35:51;5.40;99.90
1948;DHT22;974;52.400;9.818;2023-03-03T15:38:30;5.40;99.90
1948;DHT22;974;52.400;9.818;2023-03-03T15:47:03;5.30;99.90
1948;DHT22;974;52.400;9.818;2023-03-03T16:01:22;4.60;99.90
1948;DHT22;974;52.400;9.818;2023-03-03T16:03:56;4.60;99.90
1948;DHT22;974;52.400;9.818;2023-03-03T16:09:28;4.80;99.90
1948;DHT22;974;52.400;9.818;2023-03-03T16:14:37;4.40;99.90
1948;DHT22;974;52.400;9.818;2023-03-03T16:17:23;4.40;99.90
1948;DHT22;974;52.400;9.818;2023-03-03T16:20:22;4.20;99.90
1948;DHT22;974;52.400;9.818;2023-03-03T16:23:00;4.20;99.90
1948;DHT22;974;52.400;9.818;2023-03-03T16:29:00;4.20;99.90
1948;DHT22;974;52.400;9.818;2023-03-03T16:31:35;4.10;99.90
1948;DHT22;974;52.400;9.818;2023-03-03T16:34:39;4.00;99.90
1948;DHT22;974;52.400;9.818;2023-03-03T16:37:19;4.10;99.90
1948;DHT22;974;52.400;9.818;2023-03-03T16:42:48;3.70;99.90
1948;DHT22;974;52.400;9.818;2023-03-03T16:45:28;3.70;99.90
1948;DHT22;974;52.400;9.818;2023-03-03T16:59:02;3.50;99.90
1948;DHT22;974;52.400;9.818;2023-03-03T17:04:38;3.40;99.90
1948;DHT22;974;52.400;9.818;2023-03-03T17:07:18;3.40;99.90
1948;DHT22;974;52.400;9.818;2023-03-03T17:10:03;3.30;99.90
1948;DHT22;974;52.400;9.818;2023-03-03T17:18:11;3.30;99.90
1948;DHT22;974;52.400;9.818;2023-03-03T17:20:49;3.50;99.90
1948;DHT22;974;52.400;9.818;2023-03-03T17:26:32;3.30;99.90
1948;DHT22;974;52.400;9.818;2023-03-03T17:32:12;3.40;99.90
1948;DHT22;974;52.400;9.818;2023-03-03T17:41:03;3.50;99.90
1948;DHT22;974;52.400;9.818;2023-03-03T17:46:41;3.50;99.90
1948;DHT22;974;52.400;9.818;2023-03-03T17:49:20;3.50;99.90
1948;DHT22;974;52.400;9.818;2023-03-03T17:52:05;3.50;99.90
1948;DHT22;974;52.400;9.818;2023-03-03T17:55:05;3.50;99.90
1948;DHT22;974;52.400;9.818;2023-03-03T18:03:22;3.50;99.90
1948;DHT22;974;52.400;9.818;2023-03-03T18:11:58;3.70;99.90
1948;DHT22;974;52.400;9.818;2023-03-03T18:14:40;3.70;99.90
1948;DHT22;974;52.400;9.818;2023-03-03T18:22:45;3.60;99.90
1948;DHT22;974;52.400;9.818;2023-03-03T18:25:25;3.70;99.90
1948;DHT22;974;52.400;9.818;2023-03-03T18:28:21;3.80;99.90
1948;DHT22;974;52.400;9.818;2023-03-03T18:31:00;3.70;99.90
1948;DHT22;974;52.400;9.818;2023-03-03T18:33:55;3.80;99.90
1948;DHT22;974;52.400;9.818;2023-03-03T18:38:52;3.80;99.90
1948;DHT22;974;52.400;9.818;2023-03-03T18:41:25;3.70;99.90
1948;DHT22;974;52.400;9.818;2023-03-03T18:43:56;3.70;99.90
1948;DHT22;974;52.400;9.818;2023-03-03T18:48:58;3.80;99.90
1948;DHT22;974;52.400;9.818;2023-03-03T18:54:00;3.80;99.90
1948;DHT22;974;52.400;9.818;2023-03-03T19:05:18;3.90;99.90
1948;DHT22;974;52.400;9.818;2023-03-03T19:08:00;3.90;99.90
1948;DHT22;974;52.400;9.818;2023-03-03T19:10:49;4.00;99.90
1948;DHT22;974;52.400;9.818;2023-03-03T19:15:58;4.00;99.90
1948;DHT22;974;52.400;9.818;2023-03-03T19:18:33;4.00;99.90
1948;DHT22;974;52.400;9.818;2023-03-03T19:23:55;4.10;99.90
1948;DHT22;974;52.400;9.818;2023-03-03T19:32:08;4.20;99.90
1948;DHT22;974;52.400;9.818;2023-03-03T19:42:53;4.20;99.90
1948;DHT22;974;52.400;9.818;2023-03-03T19:48:33;4.20;99.90
1948;DHT22;974;52.400;9.818;2023-03-03T19:51:13;4.20;99.90
1948;DHT22;974;52.400;9.818;2023-03-03T19:56:47;4.20;99.90
1948;DHT22;974;52.400;9.818;2023-03-03T20:00:25;4.20;99.90
1948;DHT22;974;52.400;9.818;2023-03-03T20:10:49;4.30;99.90
1948;DHT22;974;52.400;9.818;2023-03-03T20:19:00;4.30;99.90
1948;DHT22;974;52.400;9.818;2023-03-03T20:21:33;4.40;99.90
1948;DHT22;974;52.400;9.818;2023-03-03T20:29:31;4.40;99.90
1948;DHT22;974;52.400;9.818;2023-03-03T20:32:25;4.40;99.90
1948;DHT22;974;52.400;9.818;2023-03-03T20:37:57;4.30;99.90
1948;DHT22;974;52.400;9.818;2023-03-03T20:40:52;4.30;99.90
1948;DHT22;974;52.400;9.818;2023-03-03T20:43:39;4.40;99.90
1948;DHT22;974;52.400;9.818;2023-03-03T20:46:31;4.40;99.90
1948;DHT22;974;52.400;9.818;2023-03-03T20:49:27;4.40;99.90
1948;DHT22;974;52.400;9.818;2023-03-03T20:52:10;4.40;99.90
1948;DHT22;974;52.400;9.818;2023-03-03T21:00:32;4.50;99.90
1948;DHT22;974;52.400;9.818;2023-03-03T21:03:18;4.50;99.90
1948;DHT22;974;52.400;9.818;2023-03-03T21:05:56;4.50;99.90
1948;DHT22;974;52.400;9.818;2023-03-03T21:11:07;4.50;99.90
1948;DHT22;974;52.400;9.818;2023-03-03T21:13:40;4.50;99.90
1948;DHT22;974;52.400;9.818;2023-03-03T21:19:10;4.50;99.90
1948;DHT22;974;52.400;9.818;2023-03-03T21:21:38;4.50;99.90
1948;DHT22;974;52.400;9.818;2023-03-03T21:24:05;4.60;99.90
1948;DHT22;974;52.400;9.818;2023-03-03T21:26:49;4.50;99.90
1948;DHT22;974;52.400;9.818;2023-03-03T21:29:32;4.50;99.90
1948;DHT22;974;52.400;9.818;2023-03-03T21:32:00;4.40;99.90
1948;DHT22;974;52.400;9.818;2023-03-03T21:34:35;4.40;99.90
1948;DHT22;974;52.400;9.818;2023-03-03T21:37:06;4.40;99.90
1948;DHT22;974;52.400;9.818;2023-03-03T21:39:33;4.40;99.90
1948;DHT22;974;52.400;9.818;2023-03-03T21:42:08;4.40;99.90
1948;DHT22;974;52.400;9.818;2023-03-03T21:44:39;4.40;99.90
1948;DHT22;974;52.400;9.818;2023-03-03T21:47:07;4.40;99.90
1948;DHT22;974;52.400;9.818;2023-03-03T21:49:34;4.40;99.90
1948;DHT22;974;52.400;9.818;2023-03-03T21:51:59;4.40;99.90
1948;DHT22;974;52.400;9.818;2023-03-03T21:54:25;4.30;99.90
1948;DHT22;974;52.400;9.818;2023-03-03T21:56:51;4.40;99.90
1948;DHT22;974;52.400;9.818;2023-03-03T21:59:17;4.40;99.90
1948;DHT22;974;52.400;9.818;2023-03-03T22:01:43;4.40;99.90